New Bloomington, Ohio
Current Conditions -  °F | °C
As of 2:53 AM on Sunday 21 Dec 2014 (Local Time) from KMNN Reporting Station
Haze Haze  
Wind Chill: 29°   Ceiling: 2800
Heat Index: 29°   Visibility: 5mi
Dew Point: 24°   Wind: 0mph
Humidity: 82%   Direction: NA
Pressure: 30.28"   Gusts: NA
Location:  40.58°N, 83.32°W
Report Text: KMNN 210753Z AUTO 00000KT 5SM HZ OVC028 M02/M04 A3028 RMK AO2 SLP269 T10171044 TSNO
Loading
Personal Weather Stations






























Interactive Weather Map New forecast layout! Learn more

10-Day Weather Forecast

Advertisements
Track Severe Weather on mobile